Kake, AK

11:49 PM AKDT on July 25, 2014 (GMT -0800)
Kake (PAFE) Elev 171 ft | 56.96 °N, 133.91 °W | Change Station

Current weather conditions updated 13 minutes ago

Overcast
Overcast
54 °F
Feels Like 54 °F
N
8
Wind Variable Wind from ESE

Tomorrow is forecast to be nearly the same temperature as today. Mainly cloudy and rainy.

Today
High -- | Low -- °F
--% Chance of Precip.
Yesterday
High -- | Low -- °F
Precip. -- in
4:41 AM 9:21 PM
Waning Crescent, 0% visible
Pressure 29.99 in
Visibility 10.0 miles
Clouds Few 2300 ft
Overcast 3400 ft
Dew Point 52 °F
Humidity 94%
Rainfall 0.54 in
Snow Depth Not available.
UV 0 out of 12
Pollen Not available.
Air Quality Not available.
Flu Activity Not available.
METAR PAFE 260736Z AUTO 11007KT 10SM FEW023 OVC034 12/11 A2999 RMK AO1 P0002

More Conditions Fewer Conditions

Pressure 29.99 in
Visibility 10.0 miles
Clouds Few 2300 ft
Overcast 3400 ft
Dew Point 52 °F
Humidity 94%
Rainfall 0.54 in
Snow Depth Not available.
UV 0 out of 12
Pollen Not available.
Air Quality Not available.
Flu Activity Not available.
METAR PAFE 260736Z AUTO 11007KT 10SM FEW023 OVC034 12/11 A2999 RMK AO1 P0002

More Conditions Fewer Conditions

10-Day Weather Forecast

Almanac

Astronomy

Jul. 25, 2014 Rise Set
Actual Time 4:41 AM AKDT 9:21 PM AKDT
Civil Twilight 3:47 AM AKDT 10:15 PM AKDT
Nautical Twilight 2:12 AM AKDT 11:47 PM AKDT
Astronomical Twilight Sun does not rise Sun does not rise
Moon 3:57 AM AKDT (7/25) 8:09 PM AKDT (7/25)
Length of Visible Light 18h 27m
Length of Day
16h 40m
Tomorrow will be 3m 45s shorter.
Waning Crescent, 0% of the Moon is Illuminated
Jul 26
Waning Crescent
Jul 26
New
Aug 3
First Quarter
Aug 10
Full
Aug 17
Last Quarter

Community

WunderPhotos

Upload Photos

1,737,527 photos uploaded!

Nearby

Snow Depth

Station Depth Elevation
Long Lake 0 in 820 ft
Upper Tsaina River 0 in 1750 ft
Moraine 0 in 2100 ft
Grandview 1 in 1100 ft
Grouse Creek Divide 0 in 700 ft

Earthquake Activity

City Distance Mag. Time & Date
No recent earthquake activity has been reported nearby.
Minimum magnitude displayed is 2.5.

Coastal Water Temperatures

Place Temperature
No Stations Reporting

Nearby Weather Stations

Station Location Temp. Dew Point Humidity Wind Precip. Elev Updated Type
RAWS KAKE AK, Kake, AK 53 °F 52 °F 98% North  at  6 mph 0.00 in / hr 399 ft 10:55 PM AKDT MADIS
MARITIME , Kake, AK 56 °F - - SSE  at  14 mph 0.00 in / hr 22 ft 11:00 PM AKDT MADIS

Show More Stations Show Fewer Stations